Time;durP1;ratioP1;P1;durP2;ratioP2;P2;SDS_P1;SDS_P2;PMS_P1;PMS_P2;Temp;Humidity;BMP_temperature;BMP_pressure;BME280_temperature;BME280_humidity;BME280_pressure;Samples;Min_cycle;Max_cycle;Signal;HPM_P1;HPM_P2
2023/09/17 00:00:04;;;;;;;5.13;4.03;;;;;;;;;;5098984;28;20286;-67
2023/09/17 00:02:32;;;;;;;4.18;3.88;;;;;;;;;;5099033;28;20258;-67
2023/09/17 00:04:59;;;;;;;4.20;3.80;;;;;;;;;;5099582;28;20199;-67
2023/09/17 00:07:27;;;;;;;4.70;4.30;;;;;;;;;;5099889;28;20284;-67
2023/09/17 00:09:54;;;;;;;4.30;4.00;;;;;;;;;;5099178;28;20277;-67
2023/09/17 00:12:21;;;;;;;4.80;4.18;;;;;;;;;;5098516;28;20243;-67
2023/09/17 00:14:49;;;;;;;4.13;3.83;;;;;;;;;;5099083;28;20325;-67
2023/09/17 00:17:18;;;;;;;4.50;3.95;;;;;;;;;;5099198;28;20256;-68
2023/09/17 00:19:45;;;;;;;4.45;4.15;;;;;;;;;;5099169;28;20268;-67
2023/09/17 00:22:14;;;;;;;4.35;4.05;;;;;;;;;;5098968;28;20565;-67
2023/09/17 00:24:42;;;;;;;4.47;4.18;;;;;;;;;;5098844;28;20191;-67
2023/09/17 00:27:10;;;;;;;4.15;3.80;;;;;;;;;;5099017;28;20210;-67
2023/09/17 00:29:38;;;;;;;4.50;4.10;;;;;;;;;;5098985;28;20250;-67
2023/09/17 00:32:06;;;;;;;4.20;3.90;;;;;;;;;;5098601;28;20269;-68
2023/09/17 00:34:35;;;;;;;4.00;3.80;;;;;;;;;;5098988;28;20267;-67
2023/09/17 00:37:03;;;;;;;4.60;4.20;;;;;;;;;;5098818;28;20246;-67
2023/09/17 00:39:30;;;;;;;4.25;3.95;;;;;;;;;;5098876;28;20293;-67
2023/09/17 00:41:58;;;;;;;4.60;4.20;;;;;;;;;;5098935;28;20195;-67
2023/09/17 00:44:25;;;;;;;4.32;4.03;;;;;;;;;;5098500;28;20290;-67
2023/09/17 00:46:53;;;;;;;4.65;4.35;;;;;;;;;;5098347;28;20203;-67
2023/09/17 00:49:20;;;;;;;4.30;3.90;;;;;;;;;;5098606;28;20299;-67
2023/09/17 00:51:49;;;;;;;4.07;3.78;;;;;;;;;;5098051;28;20247;-67
2023/09/17 00:54:17;;;;;;;4.10;3.80;;;;;;;;;;5098053;28;20314;-67
2023/09/17 00:56:45;;;;;;;4.53;4.13;;;;;;;;;;5098640;28;20263;-67
2023/09/17 00:59:12;;;;;;;4.05;3.75;;;;;;;;;;5098804;28;20235;-67
2023/09/17 01:01:39;;;;;;;3.95;3.65;;;;;;;;;;5098573;28;20302;-67
2023/09/17 01:04:08;;;;;;;5.32;3.88;;;;;;;;;;5098281;28;20295;-67
2023/09/17 01:06:37;;;;;;;4.40;4.10;;;;;;;;;;5098334;28;20239;-67
2023/09/17 01:09:07;;;;;;;4.30;4.00;;;;;;;;;;5097903;28;20305;-67
2023/09/17 01:11:35;;;;;;;4.38;3.97;;;;;;;;;;5097671;28;20559;-67
2023/09/17 01:14:08;;;;;;;4.35;4.05;;;;;;;;;;5097656;28;20293;-67
2023/09/17 01:16:35;;;;;;;4.30;4.00;;;;;;;;;;5098398;28;20286;-67
2023/09/17 01:19:03;;;;;;;3.88;3.58;;;;;;;;;;5098052;28;20298;-67
2023/09/17 01:21:34;;;;;;;4.30;4.00;;;;;;;;;;5098446;28;20483;-67
2023/09/17 01:24:08;;;;;;;4.63;4.32;;;;;;;;;;5097673;28;20208;-67
2023/09/17 01:26:38;;;;;;;4.40;4.10;;;;;;;;;;5098731;28;20203;-67
2023/09/17 01:29:07;;;;;;;4.50;4.18;;;;;;;;;;5098096;28;20294;-67
2023/09/17 01:31:35;;;;;;;4.55;4.15;;;;;;;;;;5098081;28;20203;-67
2023/09/17 01:34:03;;;;;;;4.93;4.10;;;;;;;;;;5097934;28;20632;-67
2023/09/17 01:36:34;;;;;;;4.28;3.97;;;;;;;;;;5097914;28;20212;-67
2023/09/17 01:39:05;;;;;;;4.57;4.07;;;;;;;;;;5097504;28;20493;-67
2023/09/17 01:41:33;;;;;;;4.15;3.85;;;;;;;;;;5097923;28;20204;-67
2023/09/17 01:44:03;;;;;;;4.28;3.97;;;;;;;;;;5097937;28;20577;-67
2023/09/17 01:46:33;;;;;;;4.10;3.80;;;;;;;;;;5097787;28;20264;-67
2023/09/17 01:49:00;;;;;;;4.13;3.83;;;;;;;;;;5097207;28;20413;-67
2023/09/17 01:51:29;;;;;;;4.43;4.13;;;;;;;;;;5097722;28;20246;-67
2023/09/17 01:53:57;;;;;;;4.28;3.92;;;;;;;;;;5097770;28;20211;-67
2023/09/17 01:56:24;;;;;;;4.38;4.07;;;;;;;;;;5098271;28;20525;-67
2023/09/17 01:58:52;;;;;;;4.30;4.00;;;;;;;;;;5097276;28;20599;-67
2023/09/17 02:01:20;;;;;;;4.18;3.88;;;;;;;;;;5097508;28;20294;-67
2023/09/17 02:03:49;;;;;;;4.43;4.13;;;;;;;;;;5097723;28;20199;-67
2023/09/17 02:06:17;;;;;;;4.20;3.90;;;;;;;;;;5097505;28;20204;-67
2023/09/17 02:08:44;;;;;;;4.40;4.10;;;;;;;;;;5097169;28;20203;-67
2023/09/17 02:11:11;;;;;;;4.32;4.03;;;;;;;;;;5097514;28;20239;-67
2023/09/17 02:13:39;;;;;;;4.65;4.32;;;;;;;;;;5097484;28;20515;-67
2023/09/17 02:16:05;;;;;;;4.40;4.07;;;;;;;;;;5097291;28;20314;-67
2023/09/17 02:18:33;;;;;;;4.28;3.97;;;;;;;;;;5097476;28;20311;-67
2023/09/17 02:21:01;;;;;;;4.97;4.57;;;;;;;;;;5097384;28;20213;-67
2023/09/17 02:23:29;;;;;;;4.60;4.30;;;;;;;;;;5097302;28;20203;-67
2023/09/17 02:25:57;;;;;;;4.30;3.90;;;;;;;;;;5096787;28;20436;-67
2023/09/17 02:28:25;;;;;;;4.28;3.97;;;;;;;;;;5097474;28;20286;-67
2023/09/17 02:30:52;;;;;;;4.55;4.10;;;;;;;;;;5096514;28;20239;-67
2023/09/17 02:33:20;;;;;;;4.80;4.40;;;;;;;;;;5097145;28;20203;-67
2023/09/17 02:35:50;;;;;;;4.60;4.20;;;;;;;;;;5098629;28;20227;-67
2023/09/17 02:38:19;;;;;;;4.90;4.50;;;;;;;;;;5100381;28;20211;-67
2023/09/17 02:40:46;;;;;;;4.60;4.20;;;;;;;;;;5101301;28;20265;-67
2023/09/17 02:43:14;;;;;;;4.78;4.38;;;;;;;;;;5100897;28;20195;-67
2023/09/17 02:45:43;;;;;;;4.50;4.20;;;;;;;;;;5101121;28;20207;-67
2023/09/17 02:48:12;;;;;;;4.88;4.47;;;;;;;;;;5101228;28;20227;-68
2023/09/17 02:50:40;;;;;;;4.85;4.45;;;;;;;;;;5101222;28;20218;-67
2023/09/17 02:53:07;;;;;;;4.78;4.35;;;;;;;;;;5100716;28;20290;-67
2023/09/17 02:55:36;;;;;;;4.25;3.95;;;;;;;;;;5100995;28;20314;-67
2023/09/17 02:58:04;;;;;;;4.68;4.38;;;;;;;;;;5101189;28;20239;-67
2023/09/17 03:00:32;;;;;;;4.40;4.10;;;;;;;;;;5101325;28;20581;-67
2023/09/17 03:02:59;;;;;;;4.60;4.20;;;;;;;;;;5100531;28;20212;-67
2023/09/17 03:05:27;;;;;;;5.05;4.60;;;;;;;;;;5101293;28;20214;-67
2023/09/17 03:07:55;;;;;;;4.30;4.00;;;;;;;;;;5101004;28;20310;-67
2023/09/17 03:10:22;;;;;;;4.70;4.30;;;;;;;;;;5100805;28;20212;-67
2023/09/17 03:12:52;;;;;;;4.22;3.90;;;;;;;;;;5100579;28;20320;-68
2023/09/17 03:15:20;;;;;;;4.18;3.80;;;;;;;;;;5101128;28;20234;-67
2023/09/17 03:17:47;;;;;;;4.28;3.97;;;;;;;;;;5100599;28;20215;-67
2023/09/17 03:20:17;;;;;;;4.35;4.05;;;;;;;;;;5100112;28;20243;-67
2023/09/17 03:22:45;;;;;;;4.40;4.10;;;;;;;;;;5100011;28;20307;-67
2023/09/17 03:25:13;;;;;;;4.43;4.03;;;;;;;;;;5100069;28;20299;-67
2023/09/17 03:27:40;;;;;;;4.38;4.07;;;;;;;;;;5100384;28;20235;-67
2023/09/17 03:30:10;;;;;;;4.35;4.05;;;;;;;;;;5100767;28;20266;-67
2023/09/17 03:32:37;;;;;;;4.18;3.90;;;;;;;;;;5100652;28;20238;-67
2023/09/17 03:35:06;;;;;;;4.28;3.97;;;;;;;;;;5100306;28;20234;-67
2023/09/17 03:37:33;;;;;;;4.85;4.45;;;;;;;;;;5100531;28;20203;-67
2023/09/17 03:40:10;;;;;;;5.03;4.72;;;;;;;;;;5100337;28;20204;-67
2023/09/17 03:42:38;;;;;;;4.03;3.67;;;;;;;;;;5099869;28;20670;-67
2023/09/17 03:45:06;;;;;;;4.55;4.25;;;;;;;;;;5099873;28;20199;-67
2023/09/17 03:47:35;;;;;;;4.65;4.25;;;;;;;;;;5099254;28;20580;-67
2023/09/17 03:50:04;;;;;;;4.22;3.90;;;;;;;;;;5100413;28;20290;-67
2023/09/17 03:52:31;;;;;;;5.18;4.35;;;;;;;;;;5100092;28;20204;-67
2023/09/17 03:54:59;;;;;;;4.68;4.38;;;;;;;;;;5099998;28;20231;-67
2023/09/17 03:57:27;;;;;;;4.80;4.40;;;;;;;;;;5099965;28;20233;-67
2023/09/17 03:59:55;;;;;;;4.63;4.22;;;;;;;;;;5100267;28;20204;-67
2023/09/17 04:02:23;;;;;;;4.50;4.20;;;;;;;;;;5099966;28;20242;-67
2023/09/17 04:04:52;;;;;;;4.63;4.32;;;;;;;;;;5099477;28;20200;-67
2023/09/17 04:07:19;;;;;;;4.13;3.83;;;;;;;;;;5099406;28;20203;-67
2023/09/17 04:09:46;;;;;;;4.47;4.18;;;;;;;;;;5099724;28;20286;-67
2023/09/17 04:12:14;;;;;;;4.80;4.40;;;;;;;;;;5099895;28;20240;-67
2023/09/17 04:14:42;;;;;;;4.50;4.20;;;;;;;;;;5099502;28;20342;-67
2023/09/17 04:17:09;;;;;;;4.93;4.53;;;;;;;;;;5099272;28;20214;-67
2023/09/17 04:19:37;;;;;;;5.30;4.90;;;;;;;;;;5099366;28;20214;-67
2023/09/17 04:22:05;;;;;;;4.68;4.38;;;;;;;;;;5099414;28;20204;-68
2023/09/17 04:24:33;;;;;;;4.65;4.30;;;;;;;;;;5099664;28;20206;-67
2023/09/17 04:27:00;;;;;;;4.65;4.25;;;;;;;;;;5099512;28;20207;-67
2023/09/17 04:29:28;;;;;;;5.05;4.65;;;;;;;;;;5099378;28;20264;-67
2023/09/17 04:31:56;;;;;;;4.85;4.45;;;;;;;;;;5099241;28;20254;-67
2023/09/17 04:34:23;;;;;;;4.70;4.30;;;;;;;;;;5099457;28;20298;-67
2023/09/17 04:36:50;;;;;;;4.97;4.63;;;;;;;;;;5098968;28;20309;-67
2023/09/17 04:39:19;;;;;;;4.80;4.40;;;;;;;;;;5099101;28;20214;-67
2023/09/17 04:41:47;;;;;;;4.70;4.30;;;;;;;;;;5098637;28;20213;-67
2023/09/17 04:44:14;;;;;;;5.30;4.80;;;;;;;;;;5098988;28;20200;-67
2023/09/17 04:46:43;;;;;;;4.45;4.15;;;;;;;;;;5099038;28;20206;-67
2023/09/17 04:49:10;;;;;;;5.30;4.90;;;;;;;;;;5099357;28;20306;-67
2023/09/17 04:51:37;;;;;;;4.55;4.15;;;;;;;;;;5099010;28;20291;-67
2023/09/17 04:54:05;;;;;;;4.72;4.40;;;;;;;;;;5099127;28;20298;-67
2023/09/17 04:56:35;;;;;;;4.85;4.45;;;;;;;;;;5098805;28;20314;-67
2023/09/17 04:59:03;;;;;;;5.05;4.65;;;;;;;;;;5098825;28;20207;-67
2023/09/17 05:01:30;;;;;;;4.50;4.18;;;;;;;;;;5098788;28;20204;-67
2023/09/17 05:03:58;;;;;;;5.15;4.78;;;;;;;;;;5098531;28;20214;-67
2023/09/17 05:06:25;;;;;;;5.18;4.78;;;;;;;;;;5098532;28;20203;-67
2023/09/17 05:08:53;;;;;;;5.13;4.72;;;;;;;;;;5098597;28;20238;-67
2023/09/17 05:11:20;;;;;;;5.15;4.75;;;;;;;;;;5098811;28;20203;-67
2023/09/17 05:13:50;;;;;;;4.78;4.47;;;;;;;;;;5098364;28;20235;-67
2023/09/17 05:16:18;;;;;;;5.10;4.70;;;;;;;;;;5098534;28;20238;-68
2023/09/17 05:18:45;;;;;;;4.97;4.60;;;;;;;;;;5099039;28;20222;-67
2023/09/17 05:21:12;;;;;;;5.15;4.75;;;;;;;;;;5098539;28;20313;-67
2023/09/17 05:23:40;;;;;;;4.95;4.55;;;;;;;;;;5098331;28;20257;-67
2023/09/17 05:26:08;;;;;;;4.65;4.35;;;;;;;;;;5098666;28;20608;-67
2023/09/17 05:28:36;;;;;;;5.25;4.85;;;;;;;;;;5098604;28;20210;-67
2023/09/17 05:31:05;;;;;;;5.13;4.75;;;;;;;;;;5098365;28;20203;-67
2023/09/17 05:33:32;;;;;;;5.38;4.97;;;;;;;;;;5097830;28;20234;-67
2023/09/17 05:35:59;;;;;;;5.40;5.00;;;;;;;;;;5097954;28;20262;-67
2023/09/17 05:38:27;;;;;;;5.38;4.97;;;;;;;;;;5098249;28;20290;-67
2023/09/17 05:40:55;;;;;;;5.00;4.60;;;;;;;;;;5098624;28;20229;-67
2023/09/17 05:43:22;;;;;;;5.03;4.72;;;;;;;;;;5097814;28;20298;-67
2023/09/17 05:45:56;;;;;;;4.97;4.57;;;;;;;;;;5098326;28;20259;-68
2023/09/17 05:48:25;;;;;;;5.20;4.80;;;;;;;;;;5098038;28;20214;-67
2023/09/17 05:50:53;;;;;;;5.15;4.80;;;;;;;;;;5097909;28;20203;-67
2023/09/17 05:53:21;;;;;;;4.75;4.45;;;;;;;;;;5097757;28;20204;-67
2023/09/17 05:55:48;;;;;;;5.10;4.70;;;;;;;;;;5098068;28;20504;-67
2023/09/17 05:58:16;;;;;;;5.45;5.00;;;;;;;;;;5098130;28;20481;-67
2023/09/17 06:00:43;;;;;;;5.20;4.80;;;;;;;;;;5097825;28;20211;-67
2023/09/17 06:03:11;;;;;;;5.28;4.88;;;;;;;;;;5097768;28;20210;-67
2023/09/17 06:05:40;;;;;;;5.32;4.93;;;;;;;;;;5097719;28;20286;-67
2023/09/17 06:08:08;;;;;;;5.18;4.68;;;;;;;;;;5097346;28;20203;-67
2023/09/17 06:10:35;;;;;;;4.80;4.50;;;;;;;;;;5096658;28;20269;-67
2023/09/17 06:13:03;;;;;;;5.65;4.38;;;;;;;;;;5097099;28;20255;-67
2023/09/17 06:15:30;;;;;;;5.50;5.00;;;;;;;;;;5097115;28;20500;-67
2023/09/17 06:17:58;;;;;;;5.15;4.75;;;;;;;;;;5097832;28;20203;-67
2023/09/17 06:20:25;;;;;;;5.40;4.90;;;;;;;;;;5096569;28;20325;-67
2023/09/17 06:22:54;;;;;;;4.82;4.50;;;;;;;;;;5097419;28;20298;-66
2023/09/17 06:25:23;;;;;;;5.38;4.97;;;;;;;;;;5097690;28;20237;-66
2023/09/17 06:27:51;;;;;;;5.47;5.03;;;;;;;;;;5097710;28;20204;-68
2023/09/17 06:30:19;;;;;;;5.32;4.90;;;;;;;;;;5097545;28;20300;-67
2023/09/17 06:32:47;;;;;;;5.50;5.03;;;;;;;;;;5097845;28;20215;-66
2023/09/17 06:35:15;;;;;;;5.85;5.45;;;;;;;;;;5097473;28;20578;-67
2023/09/17 06:37:43;;;;;;;5.28;4.88;;;;;;;;;;5097245;28;20585;-67
2023/09/17 06:40:14;;;;;;;5.35;4.93;;;;;;;;;;5096791;28;20203;-67
2023/09/17 06:42:41;;;;;;;5.00;4.70;;;;;;;;;;5097130;28;20203;-67
2023/09/17 06:45:09;;;;;;;5.60;5.10;;;;;;;;;;5097609;28;20302;-67
2023/09/17 06:47:37;;;;;;;4.95;4.55;;;;;;;;;;5097042;28;20218;-67
2023/09/17 06:50:04;;;;;;;5.20;4.80;;;;;;;;;;5097159;28;20195;-67
2023/09/17 06:52:32;;;;;;;5.30;4.88;;;;;;;;;;5097172;28;20242;-67
2023/09/17 06:54:59;;;;;;;5.32;4.93;;;;;;;;;;5097356;28;20203;-67
2023/09/17 06:57:28;;;;;;;5.82;5.38;;;;;;;;;;5096693;28;20230;-67
2023/09/17 06:59:56;;;;;;;6.18;5.60;;;;;;;;;;5096338;28;20203;-67
2023/09/17 07:02:23;;;;;;;6.20;5.70;;;;;;;;;;5097147;28;20280;-66
2023/09/17 07:04:51;;;;;;;6.75;6.25;;;;;;;;;;5097430;28;20546;-66
2023/09/17 07:07:19;;;;;;;6.47;5.97;;;;;;;;;;5096582;28;20260;-67
2023/09/17 07:09:47;;;;;;;7.15;6.55;;;;;;;;;;5095985;28;20214;-67
2023/09/17 07:12:16;;;;;;;6.85;6.35;;;;;;;;;;5097106;28;20232;-67
2023/09/17 07:14:45;;;;;;;6.60;6.03;;;;;;;;;;5096760;28;20204;-67
2023/09/17 07:17:12;;;;;;;6.90;6.35;;;;;;;;;;5096864;28;20228;-67
2023/09/17 07:19:40;;;;;;;6.43;5.88;;;;;;;;;;5096510;28;20204;-66
2023/09/17 07:22:11;;;;;;;6.13;5.63;;;;;;;;;;5096740;28;20295;-67
2023/09/17 07:24:39;;;;;;;6.45;5.93;;;;;;;;;;5100042;28;20298;-67
2023/09/17 07:27:07;;;;;;;6.60;6.10;;;;;;;;;;5100133;28;20199;-67
2023/09/17 07:29:34;;;;;;;6.20;5.70;;;;;;;;;;5099815;28;20199;-66
2023/09/17 07:32:03;;;;;;;6.05;5.55;;;;;;;;;;5100188;28;20549;-67
2023/09/17 07:34:31;;;;;;;6.05;5.45;;;;;;;;;;5100071;28;20203;-67
2023/09/17 07:36:59;;;;;;;5.97;5.47;;;;;;;;;;5099935;28;20227;-67
2023/09/17 07:39:27;;;;;;;5.82;5.32;;;;;;;;;;5100699;28;20206;-67
2023/09/17 07:41:55;;;;;;;5.97;5.47;;;;;;;;;;5100083;28;20268;-67
2023/09/17 07:44:23;;;;;;;5.63;5.05;;;;;;;;;;5100255;28;20286;-67
2023/09/17 07:46:50;;;;;;;5.47;5.07;;;;;;;;;;5099603;28;20200;-67
2023/09/17 07:49:19;;;;;;;5.68;5.03;;;;;;;;;;5100200;28;20302;-67
2023/09/17 07:51:46;;;;;;;5.85;5.35;;;;;;;;;;5099579;28;20196;-67
2023/09/17 07:54:14;;;;;;;6.13;5.57;;;;;;;;;;5100039;28;20200;-66
2023/09/17 07:56:42;;;;;;;6.03;5.53;;;;;;;;;;5099320;28;20322;-67
2023/09/17 07:59:09;;;;;;;6.10;5.63;;;;;;;;;;5099979;28;20463;-66
2023/09/17 08:01:36;;;;;;;6.38;5.78;;;;;;;;;;5100017;28;20204;-67
2023/09/17 08:04:04;;;;;;;6.03;5.53;;;;;;;;;;5099520;28;20204;-67
2023/09/17 08:06:34;;;;;;;6.78;6.28;;;;;;;;;;5099371;28;20203;-67
2023/09/17 08:09:06;;;;;;;6.70;6.10;;;;;;;;;;5098970;28;20203;-67
2023/09/17 08:11:34;;;;;;;6.30;5.70;;;;;;;;;;5099098;28;20454;-67
2023/09/17 08:14:01;;;;;;;6.40;5.90;;;;;;;;;;5099002;28;20231;-67
2023/09/17 08:16:29;;;;;;;7.05;6.45;;;;;;;;;;5099228;28;20235;-67
2023/09/17 08:18:56;;;;;;;6.65;6.15;;;;;;;;;;5099001;28;20210;-67
2023/09/17 08:21:25;;;;;;;6.63;6.03;;;;;;;;;;5099025;28;20250;-67
2023/09/17 08:23:53;;;;;;;6.35;5.85;;;;;;;;;;5098575;28;20227;-67
2023/09/17 08:26:21;;;;;;;6.80;6.20;;;;;;;;;;5098918;28;20199;-67
2023/09/17 08:28:50;;;;;;;6.45;5.93;;;;;;;;;;5098908;28;20306;-67
2023/09/17 08:31:18;;;;;;;6.40;5.90;;;;;;;;;;5099671;28;20238;-67
2023/09/17 08:33:46;;;;;;;6.53;6.03;;;;;;;;;;5098652;28;20207;-67
2023/09/17 08:36:14;;;;;;;6.97;6.38;;;;;;;;;;5098809;28;20504;-67
2023/09/17 08:38:42;;;;;;;6.80;6.22;;;;;;;;;;5098900;28;20200;-66
2023/09/17 08:41:11;;;;;;;6.38;5.88;;;;;;;;;;5098482;28;20257;-66
2023/09/17 08:43:39;;;;;;;6.72;6.22;;;;;;;;;;5097821;28;20265;-67
2023/09/17 08:46:07;;;;;;;6.60;5.85;;;;;;;;;;5098182;28;20231;-67
2023/09/17 08:48:34;;;;;;;6.15;5.50;;;;;;;;;;5098161;28;20203;-67
2023/09/17 08:51:02;;;;;;;6.47;5.97;;;;;;;;;;5098274;28;20273;-67
2023/09/17 08:53:32;;;;;;;6.70;6.10;;;;;;;;;;5098144;28;20290;-67
2023/09/17 08:56:00;;;;;;;5.90;5.50;;;;;;;;;;5098391;28;20263;-67
2023/09/17 08:58:34;;;;;;;6.25;5.78;;;;;;;;;;5098469;28;20208;-67
2023/09/17 09:01:04;;;;;;;6.63;6.13;;;;;;;;;;5098444;28;20550;-67
2023/09/17 09:03:35;;;;;;;6.20;5.70;;;;;;;;;;5098867;28;20225;-67
2023/09/17 09:06:03;;;;;;;5.95;5.45;;;;;;;;;;5097958;28;20214;-68
2023/09/17 09:08:32;;;;;;;6.50;6.00;;;;;;;;;;5097010;28;20208;-67
2023/09/17 09:10:59;;;;;;;6.40;5.93;;;;;;;;;;5097991;28;20214;-67
2023/09/17 09:13:27;;;;;;;5.90;5.50;;;;;;;;;;5097501;28;20641;-67
2023/09/17 09:15:56;;;;;;;6.03;5.63;;;;;;;;;;5097819;28;20217;-67
2023/09/17 09:18:24;;;;;;;6.30;5.80;;;;;;;;;;5097655;28;20242;-67
2023/09/17 09:20:51;;;;;;;6.53;6.03;;;;;;;;;;5098086;28;20212;-67
2023/09/17 09:23:19;;;;;;;6.43;5.93;;;;;;;;;;5098162;28;20282;-67
2023/09/17 09:25:46;;;;;;;6.43;5.93;;;;;;;;;;5097757;28;20218;-67
2023/09/17 09:28:14;;;;;;;6.80;6.30;;;;;;;;;;5097555;28;20253;-67
2023/09/17 09:30:45;;;;;;;6.40;6.00;;;;;;;;;;5097219;28;20290;-67
2023/09/17 09:33:14;;;;;;;6.18;5.78;;;;;;;;;;5097623;28;20228;-67
2023/09/17 09:35:42;;;;;;;6.10;5.70;;;;;;;;;;5097299;28;20294;-67
2023/09/17 09:38:10;;;;;;;6.10;5.60;;;;;;;;;;5097158;28;20224;-67
2023/09/17 09:40:38;;;;;;;6.43;5.93;;;;;;;;;;5096784;28;20203;-67
2023/09/17 09:43:05;;;;;;;6.30;5.80;;;;;;;;;;5096913;28;20264;-67
2023/09/17 09:45:36;;;;;;;6.10;5.60;;;;;;;;;;5095399;28;20199;-67
2023/09/17 09:48:03;;;;;;;6.15;5.63;;;;;;;;;;5097203;28;20200;-67
2023/09/17 09:50:32;;;;;;;6.20;5.68;;;;;;;;;;5096793;28;20210;-67
2023/09/17 09:53:00;;;;;;;5.63;5.22;;;;;;;;;;5096131;28;20589;-67
2023/09/17 09:55:28;;;;;;;5.70;5.30;;;;;;;;;;5096769;28;20431;-67
2023/09/17 09:57:56;;;;;;;5.65;5.20;;;;;;;;;;5096644;28;20238;-67
2023/09/17 10:00:28;;;;;;;5.32;4.93;;;;;;;;;;5097083;28;20294;-67
2023/09/17 10:02:56;;;;;;;5.00;4.60;;;;;;;;;;5097422;28;20207;-67
2023/09/17 10:05:34;;;;;;;4.68;4.38;;;;;;;;;;5096788;28;20203;-67
2023/09/17 10:08:02;;;;;;;4.82;4.35;;;;;;;;;;5096790;28;20192;-67
2023/09/17 10:10:30;;;;;;;4.60;4.30;;;;;;;;;;5096654;28;20234;-67
2023/09/17 10:12:58;;;;;;;4.60;4.30;;;;;;;;;;5096591;28;20237;-67
2023/09/17 10:15:27;;;;;;;4.15;3.85;;;;;;;;;;5097341;28;20204;-67
2023/09/17 10:17:55;;;;;;;4.10;3.80;;;;;;;;;;5096387;28;20219;-67
2023/09/17 10:20:23;;;;;;;3.95;3.65;;;;;;;;;;5096902;28;20238;-67
2023/09/17 10:22:53;;;;;;;3.90;3.60;;;;;;;;;;5096765;28;20469;-67
2023/09/17 10:25:21;;;;;;;3.33;3.13;;;;;;;;;;5096509;28;20211;-67
2023/09/17 10:27:50;;;;;;;4.00;3.70;;;;;;;;;;5095316;28;20298;-67
2023/09/17 10:30:19;;;;;;;3.50;3.22;;;;;;;;;;5096080;28;20215;-67
2023/09/17 10:32:46;;;;;;;3.90;3.50;;;;;;;;;;5096181;28;20204;-69
2023/09/17 10:35:14;;;;;;;3.55;3.20;;;;;;;;;;5096497;28;20286;-67
2023/09/17 10:37:42;;;;;;;3.63;3.42;;;;;;;;;;5096251;28;20223;-67
2023/09/17 10:40:12;;;;;;;3.40;3.10;;;;;;;;;;5096854;28;20213;-67
2023/09/17 10:42:39;;;;;;;3.72;3.40;;;;;;;;;;5096914;28;20307;-68
2023/09/17 10:45:09;;;;;;;3.80;3.50;;;;;;;;;;5096413;28;20243;-67
2023/09/17 10:47:37;;;;;;;3.30;3.10;;;;;;;;;;5096307;28;20207;-67
2023/09/17 10:50:05;;;;;;;3.50;3.30;;;;;;;;;;5095787;28;20226;-67
2023/09/17 10:52:33;;;;;;;3.38;3.10;;;;;;;;;;5095536;28;20212;-67
2023/09/17 10:55:00;;;;;;;3.60;3.30;;;;;;;;;;5095961;28;20236;-67
2023/09/17 10:57:36;;;;;;;3.60;3.30;;;;;;;;;;5098094;28;20223;-67
2023/09/17 11:00:04;;;;;;;4.05;3.00;;;;;;;;;;5100207;28;20636;-67
2023/09/17 11:02:33;;;;;;;3.35;3.15;;;;;;;;;;5098914;28;20772;-67
2023/09/17 11:05:00;;;;;;;2.97;2.78;;;;;;;;;;5099994;28;20202;-67
2023/09/17 11:07:30;;;;;;;3.40;3.20;;;;;;;;;;5100196;28;20204;-67
2023/09/17 11:10:01;;;;;;;3.40;3.20;;;;;;;;;;5099791;28;20238;-67
2023/09/17 11:12:30;;;;;;;3.33;3.03;;;;;;;;;;5098965;28;20227;-67
2023/09/17 11:14:58;;;;;;;3.35;3.15;;;;;;;;;;5099222;28;20306;-67
2023/09/17 11:17:31;;;;;;;3.30;3.08;;;;;;;;;;5098656;28;20314;-67
2023/09/17 11:19:59;;;;;;;2.92;2.72;;;;;;;;;;5099638;28;20245;-67
2023/09/17 11:22:28;;;;;;;3.22;3.03;;;;;;;;;;5099957;28;20204;-67
2023/09/17 11:24:56;;;;;;;3.22;2.97;;;;;;;;;;5099957;28;20752;-67
2023/09/17 11:27:43;;;;;;;2.97;2.78;;;;;;;;;;5099736;28;20233;-67
2023/09/17 11:30:17;;;;;;;2.90;2.70;;;;;;;;;;5099186;28;20203;-67
2023/09/17 11:32:52;;;;;;;2.88;2.67;;;;;;;;;;5099086;28;20202;-68
2023/09/17 11:35:22;;;;;;;2.90;2.70;;;;;;;;;;5099046;28;20593;-67
2023/09/17 11:37:49;;;;;;;2.80;2.60;;;;;;;;;;5098986;28;20220;-67
2023/09/17 11:40:18;;;;;;;2.90;2.70;;;;;;;;;;5098310;28;20204;-67
2023/09/17 11:42:46;;;;;;;2.60;2.40;;;;;;;;;;5098639;28;20539;-67
2023/09/17 11:45:14;;;;;;;2.80;2.60;;;;;;;;;;5099105;28;20199;-67
2023/09/17 11:47:43;;;;;;;3.15;2.70;;;;;;;;;;5098750;28;20208;-67
2023/09/17 11:50:11;;;;;;;2.90;2.70;;;;;;;;;;5099068;28;20239;-67
2023/09/17 11:52:38;;;;;;;2.70;2.50;;;;;;;;;;5098189;28;20203;-67
2023/09/17 11:55:11;;;;;;;2.88;2.67;;;;;;;;;;5097606;28;20204;-68
2023/09/17 11:57:39;;;;;;;2.70;2.50;;;;;;;;;;5098162;28;20258;-67
2023/09/17 12:00:09;;;;;;;2.83;2.63;;;;;;;;;;5098623;28;20230;-67
2023/09/17 12:02:38;;;;;;;2.92;2.72;;;;;;;;;;5098434;28;20573;-67
2023/09/17 12:05:08;;;;;;;3.17;2.97;;;;;;;;;;5098086;28;20494;-67
2023/09/17 12:07:36;;;;;;;3.28;3.08;;;;;;;;;;5099167;28;20239;-67
2023/09/17 12:10:06;;;;;;;3.10;2.90;;;;;;;;;;5097455;28;20684;-67
2023/09/17 12:12:34;;;;;;;3.42;3.13;;;;;;;;;;5098441;28;20602;-68
2023/09/17 12:15:02;;;;;;;3.10;2.90;;;;;;;;;;5098501;28;20204;-68
2023/09/17 12:17:30;;;;;;;3.15;2.95;;;;;;;;;;5098519;28;20677;-67
2023/09/17 12:23:26;;;;;;;2.95;2.75;;;;;;;;;;5071117;28;20333;-67
2023/09/17 12:25:55;;;;;;;2.90;2.70;;;;;;;;;;5097519;28;20758;-69
2023/09/17 12:28:27;;;;;;;3.00;2.80;;;;;;;;;;5098076;28;20207;-68
2023/09/17 12:30:55;;;;;;;2.78;2.58;;;;;;;;;;5098005;28;20237;-68
2023/09/17 12:33:23;;;;;;;3.70;2.38;;;;;;;;;;5098276;28;20315;-68
2023/09/17 12:35:52;;;;;;;2.85;2.65;;;;;;;;;;5097998;28;20592;-67
2023/09/17 12:38:19;;;;;;;3.08;2.88;;;;;;;;;;5098709;28;20483;-67
2023/09/17 12:40:47;;;;;;;3.10;2.90;;;;;;;;;;5097987;28;20337;-67
2023/09/17 12:43:16;;;;;;;3.00;2.80;;;;;;;;;;5098148;28;20298;-67
2023/09/17 12:45:43;;;;;;;2.90;2.70;;;;;;;;;;5097495;28;20626;-67
2023/09/17 12:48:11;;;;;;;2.90;2.70;;;;;;;;;;5097403;28;20239;-67
2023/09/17 12:50:42;;;;;;;3.00;2.78;;;;;;;;;;5097514;28;20243;-67
2023/09/17 12:53:10;;;;;;;3.20;3.00;;;;;;;;;;5097412;28;20247;-67
2023/09/17 12:55:37;;;;;;;3.05;2.80;;;;;;;;;;5097186;28;20665;-67
2023/09/17 12:58:06;;;;;;;3.53;3.20;;;;;;;;;;5095996;28;20231;-67
2023/09/17 13:00:35;;;;;;;3.28;3.08;;;;;;;;;;5096575;28;20239;-67
2023/09/17 13:03:09;;;;;;;3.50;3.20;;;;;;;;;;5097502;28;20228;-67
2023/09/17 13:05:36;;;;;;;3.78;3.50;;;;;;;;;;5097591;28;20754;-67
2023/09/17 13:08:04;;;;;;;4.18;3.78;;;;;;;;;;5097760;28;20298;-67
2023/09/17 13:10:32;;;;;;;3.55;3.35;;;;;;;;;;5097530;28;20204;-67
2023/09/17 13:12:59;;;;;;;3.97;3.67;;;;;;;;;;5097184;28;20267;-67
2023/09/17 13:15:27;;;;;;;3.65;3.45;;;;;;;;;;5096631;28;20592;-67
2023/09/17 13:17:54;;;;;;;3.80;3.50;;;;;;;;;;5097244;28;20631;-68
2023/09/17 13:20:22;;;;;;;3.55;3.35;;;;;;;;;;5096003;28;20206;-67
2023/09/17 13:22:50;;;;;;;3.80;3.50;;;;;;;;;;5096516;28;20590;-68
2023/09/17 13:25:20;;;;;;;5.22;3.53;;;;;;;;;;5097531;28;20286;-67
2023/09/17 13:27:47;;;;;;;3.47;3.17;;;;;;;;;;5097320;28;20200;-68
2023/09/17 13:30:17;;;;;;;3.28;3.08;;;;;;;;;;5096390;28;20212;-67
2023/09/17 13:32:44;;;;;;;3.30;3.10;;;;;;;;;;5114430;28;20290;-67
2023/09/17 13:35:15;;;;;;;3.40;3.20;;;;;;;;;;5117197;28;20207;-67
2023/09/17 13:37:43;;;;;;;3.30;3.10;;;;;;;;;;5117276;28;20223;-67
2023/09/17 13:40:10;;;;;;;2.97;2.78;;;;;;;;;;5117189;28;20203;-68
2023/09/17 13:42:38;;;;;;;2.90;2.70;;;;;;;;;;5116576;28;20210;-68
2023/09/17 13:45:06;;;;;;;2.85;2.65;;;;;;;;;;5117341;28;20286;-67
2023/09/17 13:47:33;;;;;;;2.30;2.20;;;;;;;;;;5116798;28;20203;-67
2023/09/17 13:50:01;;;;;;;2.50;2.30;;;;;;;;;;5115038;28;20201;-68
2023/09/17 13:52:30;;;;;;;2.22;2.13;;;;;;;;;;5116504;28;20672;-67
2023/09/17 13:54:57;;;;;;;2.63;2.42;;;;;;;;;;5116138;28;20232;-67
2023/09/17 13:57:25;;;;;;;2.33;2.20;;;;;;;;;;5116299;28;20306;-67
2023/09/17 13:59:52;;;;;;;2.28;2.17;;;;;;;;;;5116229;28;20227;-67
2023/09/17 14:02:20;;;;;;;2.60;2.40;;;;;;;;;;5116012;28;20215;-67
2023/09/17 14:04:48;;;;;;;2.40;2.30;;;;;;;;;;5116564;28;20209;-68
2023/09/17 14:07:15;;;;;;;2.30;2.20;;;;;;;;;;5117253;28;20272;-68
2023/09/17 14:09:44;;;;;;;2.03;1.92;;;;;;;;;;5116766;28;20199;-68
2023/09/17 14:12:11;;;;;;;2.13;2.03;;;;;;;;;;5116216;28;20325;-68
2023/09/17 14:14:38;;;;;;;2.42;2.22;;;;;;;;;;5116311;28;20203;-68
2023/09/17 14:17:06;;;;;;;2.22;2.03;;;;;;;;;;5115906;28;20211;-68
2023/09/17 14:19:34;;;;;;;2.15;2.05;;;;;;;;;;5115712;28;20321;-68
2023/09/17 14:22:01;;;;;;;2.40;2.30;;;;;;;;;;5116905;28;20293;-68
2023/09/17 14:24:28;;;;;;;2.65;2.10;;;;;;;;;;5115961;28;20561;-68
2023/09/17 14:26:57;;;;;;;2.40;2.20;;;;;;;;;;5115729;28;20565;-68
2023/09/17 14:29:25;;;;;;;2.67;2.47;;;;;;;;;;5116265;28;20209;-68
2023/09/17 14:31:52;;;;;;;2.25;2.10;;;;;;;;;;5117617;28;20253;-68
2023/09/17 14:34:20;;;;;;;2.20;2.10;;;;;;;;;;5119893;28;20214;-68
2023/09/17 14:36:47;;;;;;;2.10;2.00;;;;;;;;;;5120491;28;20663;-68
2023/09/17 14:39:15;;;;;;;2.03;1.92;;;;;;;;;;5120838;28;20813;-68
2023/09/17 14:41:42;;;;;;;2.08;1.98;;;;;;;;;;5120517;28;20464;-68
2023/09/17 14:44:11;;;;;;;2.60;1.95;;;;;;;;;;5119242;28;20203;-68
2023/09/17 14:46:39;;;;;;;1.95;1.85;;;;;;;;;;5120754;28;20290;-68
2023/09/17 14:49:06;;;;;;;1.95;1.85;;;;;;;;;;5120900;28;20209;-67
2023/09/17 14:51:33;;;;;;;1.95;1.85;;;;;;;;;;5120536;28;20293;-68